sensor_id;sensor_type;location;lat;lon;timestamp;P1;durP1;ratioP1;P2;durP2;ratioP2
53714;SDS011;39608;55.630;37.864;2022-12-18T00:04:31;12.52;;;7.97;;
53714;SDS011;39608;55.630;37.864;2022-12-18T00:09:33;8.95;;;6.10;;
53714;SDS011;39608;55.630;37.864;2022-12-18T00:14:37;10.15;;;7.15;;
53714;SDS011;39608;55.630;37.864;2022-12-18T00:19:39;10.82;;;7.18;;
53714;SDS011;39608;55.630;37.864;2022-12-18T00:24:40;8.90;;;6.25;;
53714;SDS011;39608;55.630;37.864;2022-12-18T00:29:44;7.80;;;5.38;;
53714;SDS011;39608;55.630;37.864;2022-12-18T00:34:46;10.80;;;6.15;;
53714;SDS011;39608;55.630;37.864;2022-12-18T00:39:48;8.13;;;6.32;;
53714;SDS011;39608;55.630;37.864;2022-12-18T00:44:52;11.50;;;6.10;;
53714;SDS011;39608;55.630;37.864;2022-12-18T00:49:53;9.40;;;6.13;;
53714;SDS011;39608;55.630;37.864;2022-12-18T00:54:56;8.10;;;5.85;;
53714;SDS011;39608;55.630;37.864;2022-12-18T01:00:01;8.95;;;5.38;;
53714;SDS011;39608;55.630;37.864;2022-12-18T01:05:04;9.43;;;5.82;;
53714;SDS011;39608;55.630;37.864;2022-12-18T01:10:07;7.78;;;6.03;;
53714;SDS011;39608;55.630;37.864;2022-12-18T01:15:15;8.00;;;5.50;;
53714;SDS011;39608;55.630;37.864;2022-12-18T01:20:17;10.07;;;5.35;;
53714;SDS011;39608;55.630;37.864;2022-12-18T01:25:19;11.65;;;6.10;;
53714;SDS011;39608;55.630;37.864;2022-12-18T01:30:22;8.10;;;5.60;;
53714;SDS011;39608;55.630;37.864;2022-12-18T01:35:24;7.43;;;5.32;;
53714;SDS011;39608;55.630;37.864;2022-12-18T01:40:28;14.32;;;5.18;;
53714;SDS011;39608;55.630;37.864;2022-12-18T01:45:32;8.20;;;5.65;;
53714;SDS011;39608;55.630;37.864;2022-12-18T01:50:35;8.82;;;5.70;;
53714;SDS011;39608;55.630;37.864;2022-12-18T01:55:40;7.57;;;5.13;;
53714;SDS011;39608;55.630;37.864;2022-12-18T02:00:52;8.65;;;5.10;;
53714;SDS011;39608;55.630;37.864;2022-12-18T02:05:57;7.97;;;5.55;;
53714;SDS011;39608;55.630;37.864;2022-12-18T02:11:08;9.70;;;5.88;;
53714;SDS011;39608;55.630;37.864;2022-12-18T02:16:20;8.68;;;5.45;;
53714;SDS011;39608;55.630;37.864;2022-12-18T02:21:31;6.80;;;5.03;;
53714;SDS011;39608;55.630;37.864;2022-12-18T02:26:43;8.02;;;5.07;;
53714;SDS011;39608;55.630;37.864;2022-12-18T02:31:51;7.63;;;5.32;;
53714;SDS011;39608;55.630;37.864;2022-12-18T02:36:55;7.47;;;4.93;;
53714;SDS011;39608;55.630;37.864;2022-12-18T02:42:02;7.63;;;4.95;;
53714;SDS011;39608;55.630;37.864;2022-12-18T02:47:08;6.57;;;5.05;;
53714;SDS011;39608;55.630;37.864;2022-12-18T02:52:16;6.38;;;4.53;;
53714;SDS011;39608;55.630;37.864;2022-12-18T02:57:29;7.53;;;4.47;;
53714;SDS011;39608;55.630;37.864;2022-12-18T03:02:37;6.50;;;4.38;;
53714;SDS011;39608;55.630;37.864;2022-12-18T03:07:45;8.95;;;4.80;;
53714;SDS011;39608;55.630;37.864;2022-12-18T03:12:53;6.05;;;4.78;;
53714;SDS011;39608;55.630;37.864;2022-12-18T03:18:02;5.35;;;4.18;;
53714;SDS011;39608;55.630;37.864;2022-12-18T03:23:10;7.25;;;5.35;;
53714;SDS011;39608;55.630;37.864;2022-12-18T03:28:17;5.97;;;4.47;;
53714;SDS011;39608;55.630;37.864;2022-12-18T03:38:27;6.60;;;4.57;;
53714;SDS011;39608;55.630;37.864;2022-12-18T03:43:34;6.57;;;4.47;;
53714;SDS011;39608;55.630;37.864;2022-12-18T03:48:42;7.00;;;4.65;;
53714;SDS011;39608;55.630;37.864;2022-12-18T03:53:52;6.25;;;4.95;;
53714;SDS011;39608;55.630;37.864;2022-12-18T03:58:59;8.65;;;4.90;;
53714;SDS011;39608;55.630;37.864;2022-12-18T04:04:04;6.77;;;4.07;;
53714;SDS011;39608;55.630;37.864;2022-12-18T04:09:08;8.15;;;4.65;;
53714;SDS011;39608;55.630;37.864;2022-12-18T04:14:13;7.82;;;4.65;;
53714;SDS011;39608;55.630;37.864;2022-12-18T04:19:16;8.35;;;4.38;;
53714;SDS011;39608;55.630;37.864;2022-12-18T04:24:18;6.40;;;4.22;;
53714;SDS011;39608;55.630;37.864;2022-12-18T04:29:21;8.48;;;4.95;;
53714;SDS011;39608;55.630;37.864;2022-12-18T04:34:23;6.43;;;4.95;;
53714;SDS011;39608;55.630;37.864;2022-12-18T04:39:25;7.00;;;4.70;;
53714;SDS011;39608;55.630;37.864;2022-12-18T04:44:28;4.53;;;3.85;;
53714;SDS011;39608;55.630;37.864;2022-12-18T04:49:30;5.55;;;4.15;;
53714;SDS011;39608;55.630;37.864;2022-12-18T04:54:32;7.35;;;4.88;;
53714;SDS011;39608;55.630;37.864;2022-12-18T04:59:36;6.10;;;4.32;;
53714;SDS011;39608;55.630;37.864;2022-12-18T05:04:38;7.40;;;4.57;;
53714;SDS011;39608;55.630;37.864;2022-12-18T05:09:40;8.15;;;5.05;;
53714;SDS011;39608;55.630;37.864;2022-12-18T05:14:43;7.70;;;4.35;;
53714;SDS011;39608;55.630;37.864;2022-12-18T05:19:45;11.25;;;4.75;;
53714;SDS011;39608;55.630;37.864;2022-12-18T05:24:47;5.35;;;4.40;;
53714;SDS011;39608;55.630;37.864;2022-12-18T05:29:51;10.07;;;4.68;;
53714;SDS011;39608;55.630;37.864;2022-12-18T05:34:53;9.85;;;4.95;;
53714;SDS011;39608;55.630;37.864;2022-12-18T05:39:54;6.78;;;4.45;;
53714;SDS011;39608;55.630;37.864;2022-12-18T05:44:58;6.28;;;4.82;;
53714;SDS011;39608;55.630;37.864;2022-12-18T05:50:00;6.18;;;4.53;;
53714;SDS011;39608;55.630;37.864;2022-12-18T05:55:03;9.30;;;5.15;;
53714;SDS011;39608;55.630;37.864;2022-12-18T06:00:08;7.07;;;4.60;;
53714;SDS011;39608;55.630;37.864;2022-12-18T06:05:11;9.15;;;4.40;;
53714;SDS011;39608;55.630;37.864;2022-12-18T06:10:13;4.97;;;3.92;;
53714;SDS011;39608;55.630;37.864;2022-12-18T06:15:16;5.18;;;3.95;;
53714;SDS011;39608;55.630;37.864;2022-12-18T06:20:19;5.20;;;4.15;;
53714;SDS011;39608;55.630;37.864;2022-12-18T06:25:21;6.18;;;4.45;;
53714;SDS011;39608;55.630;37.864;2022-12-18T06:30:24;5.97;;;4.38;;
53714;SDS011;39608;55.630;37.864;2022-12-18T06:35:26;5.70;;;4.35;;
53714;SDS011;39608;55.630;37.864;2022-12-18T06:40:28;5.95;;;3.92;;
53714;SDS011;39608;55.630;37.864;2022-12-18T06:45:32;5.25;;;4.20;;
53714;SDS011;39608;55.630;37.864;2022-12-18T06:50:34;5.57;;;4.00;;
53714;SDS011;39608;55.630;37.864;2022-12-18T06:55:36;5.90;;;4.03;;
53714;SDS011;39608;55.630;37.864;2022-12-18T07:00:39;6.72;;;3.78;;
53714;SDS011;39608;55.630;37.864;2022-12-18T07:05:42;6.53;;;4.22;;
53714;SDS011;39608;55.630;37.864;2022-12-18T07:10:44;7.85;;;5.25;;
53714;SDS011;39608;55.630;37.864;2022-12-18T07:15:48;6.95;;;4.72;;
53714;SDS011;39608;55.630;37.864;2022-12-18T07:20:50;7.00;;;4.70;;
53714;SDS011;39608;55.630;37.864;2022-12-18T07:25:52;6.03;;;4.07;;
53714;SDS011;39608;55.630;37.864;2022-12-18T07:30:58;5.28;;;4.18;;
53714;SDS011;39608;55.630;37.864;2022-12-18T07:36:06;5.40;;;3.55;;
53714;SDS011;39608;55.630;37.864;2022-12-18T07:41:12;5.63;;;4.30;;
53714;SDS011;39608;55.630;37.864;2022-12-18T07:46:16;8.40;;;4.95;;
53714;SDS011;39608;55.630;37.864;2022-12-18T07:51:18;7.75;;;5.18;;
53714;SDS011;39608;55.630;37.864;2022-12-18T07:56:20;8.82;;;5.00;;
53714;SDS011;39608;55.630;37.864;2022-12-18T08:01:24;9.90;;;5.25;;
53714;SDS011;39608;55.630;37.864;2022-12-18T08:06:26;7.15;;;4.63;;
53714;SDS011;39608;55.630;37.864;2022-12-18T08:11:28;8.40;;;4.80;;
53714;SDS011;39608;55.630;37.864;2022-12-18T08:16:32;8.30;;;5.13;;
53714;SDS011;39608;55.630;37.864;2022-12-18T08:21:34;7.82;;;4.43;;
53714;SDS011;39608;55.630;37.864;2022-12-18T08:26:36;8.13;;;5.07;;
53714;SDS011;39608;55.630;37.864;2022-12-18T08:31:39;7.65;;;4.97;;
53714;SDS011;39608;55.630;37.864;2022-12-18T08:36:41;8.13;;;5.40;;
53714;SDS011;39608;55.630;37.864;2022-12-18T08:47:15;8.20;;;5.43;;
53714;SDS011;39608;55.630;37.864;2022-12-18T08:52:18;6.90;;;4.80;;
53714;SDS011;39608;55.630;37.864;2022-12-18T08:57:20;6.65;;;4.20;;
53714;SDS011;39608;55.630;37.864;2022-12-18T09:02:23;7.03;;;4.63;;
53714;SDS011;39608;55.630;37.864;2022-12-18T09:07:25;6.40;;;4.13;;
53714;SDS011;39608;55.630;37.864;2022-12-18T09:12:27;6.72;;;4.65;;
53714;SDS011;39608;55.630;37.864;2022-12-18T09:17:31;7.60;;;4.55;;
53714;SDS011;39608;55.630;37.864;2022-12-18T09:22:33;6.63;;;4.90;;
53714;SDS011;39608;55.630;37.864;2022-12-18T09:27:35;6.90;;;4.85;;
53714;SDS011;39608;55.630;37.864;2022-12-18T09:32:38;9.50;;;4.72;;
53714;SDS011;39608;55.630;37.864;2022-12-18T09:37:40;7.57;;;4.10;;
53714;SDS011;39608;55.630;37.864;2022-12-18T09:42:42;5.97;;;4.22;;
53714;SDS011;39608;55.630;37.864;2022-12-18T09:47:51;6.30;;;4.15;;
53714;SDS011;39608;55.630;37.864;2022-12-18T09:52:56;6.28;;;4.47;;
53714;SDS011;39608;55.630;37.864;2022-12-18T09:58:02;6.63;;;4.57;;
53714;SDS011;39608;55.630;37.864;2022-12-18T10:03:11;7.10;;;4.40;;
53714;SDS011;39608;55.630;37.864;2022-12-18T10:08:16;5.05;;;4.05;;
53714;SDS011;39608;55.630;37.864;2022-12-18T10:13:26;6.07;;;4.15;;
53714;SDS011;39608;55.630;37.864;2022-12-18T10:18:46;5.80;;;4.18;;
53714;SDS011;39608;55.630;37.864;2022-12-18T10:24:02;6.10;;;3.95;;
53714;SDS011;39608;55.630;37.864;2022-12-18T10:29:15;6.05;;;4.20;;
53714;SDS011;39608;55.630;37.864;2022-12-18T10:34:19;6.50;;;4.55;;
53714;SDS011;39608;55.630;37.864;2022-12-18T10:39:22;7.00;;;4.10;;
53714;SDS011;39608;55.630;37.864;2022-12-18T10:44:26;6.53;;;4.07;;
53714;SDS011;39608;55.630;37.864;2022-12-18T10:49:30;6.68;;;3.92;;
53714;SDS011;39608;55.630;37.864;2022-12-18T10:54:34;5.97;;;4.13;;
53714;SDS011;39608;55.630;37.864;2022-12-18T10:59:38;5.78;;;2.80;;
53714;SDS011;39608;55.630;37.864;2022-12-18T11:04:53;5.05;;;3.58;;
53714;SDS011;39608;55.630;37.864;2022-12-18T11:10:02;5.07;;;3.40;;
53714;SDS011;39608;55.630;37.864;2022-12-18T11:15:05;5.78;;;3.72;;
53714;SDS011;39608;55.630;37.864;2022-12-18T11:20:30;8.15;;;4.07;;
53714;SDS011;39608;55.630;37.864;2022-12-18T11:25:34;6.80;;;4.18;;
53714;SDS011;39608;55.630;37.864;2022-12-18T11:30:39;6.13;;;4.32;;
53714;SDS011;39608;55.630;37.864;2022-12-18T11:35:44;4.97;;;3.40;;
53714;SDS011;39608;55.630;37.864;2022-12-18T11:40:53;5.55;;;3.40;;
53714;SDS011;39608;55.630;37.864;2022-12-18T11:46:01;6.72;;;4.32;;
53714;SDS011;39608;55.630;37.864;2022-12-18T11:51:10;5.93;;;3.75;;
53714;SDS011;39608;55.630;37.864;2022-12-18T11:56:26;4.88;;;3.60;;
53714;SDS011;39608;55.630;37.864;2022-12-18T12:01:36;6.32;;;4.05;;
53714;SDS011;39608;55.630;37.864;2022-12-18T12:06:48;6.10;;;3.72;;
53714;SDS011;39608;55.630;37.864;2022-12-18T12:12:02;5.22;;;3.28;;
53714;SDS011;39608;55.630;37.864;2022-12-18T12:17:19;5.63;;;3.25;;
53714;SDS011;39608;55.630;37.864;2022-12-18T12:22:33;5.68;;;3.65;;
53714;SDS011;39608;55.630;37.864;2022-12-18T12:27:43;4.70;;;3.85;;
53714;SDS011;39608;55.630;37.864;2022-12-18T12:32:59;5.47;;;3.70;;
53714;SDS011;39608;55.630;37.864;2022-12-18T12:38:17;6.55;;;4.03;;
53714;SDS011;39608;55.630;37.864;2022-12-18T12:43:27;6.25;;;3.42;;
53714;SDS011;39608;55.630;37.864;2022-12-18T12:48:35;5.32;;;3.38;;
53714;SDS011;39608;55.630;37.864;2022-12-18T12:53:43;6.00;;;3.13;;
53714;SDS011;39608;55.630;37.864;2022-12-18T12:58:49;5.15;;;3.03;;
53714;SDS011;39608;55.630;37.864;2022-12-18T13:04:01;5.05;;;3.20;;
53714;SDS011;39608;55.630;37.864;2022-12-18T13:09:11;4.15;;;2.70;;
53714;SDS011;39608;55.630;37.864;2022-12-18T13:14:20;4.35;;;3.13;;
53714;SDS011;39608;55.630;37.864;2022-12-18T13:19:25;5.07;;;2.45;;
53714;SDS011;39608;55.630;37.864;2022-12-18T13:24:30;4.40;;;2.60;;
53714;SDS011;39608;55.630;37.864;2022-12-18T13:29:43;2.67;;;2.00;;
53714;SDS011;39608;55.630;37.864;2022-12-18T13:34:48;3.03;;;2.72;;
53714;SDS011;39608;55.630;37.864;2022-12-18T13:39:52;4.05;;;2.72;;
53714;SDS011;39608;55.630;37.864;2022-12-18T13:44:54;6.30;;;2.72;;
53714;SDS011;39608;55.630;37.864;2022-12-18T13:49:56;4.93;;;2.22;;
53714;SDS011;39608;55.630;37.864;2022-12-18T13:55:00;6.55;;;3.42;;
53714;SDS011;39608;55.630;37.864;2022-12-18T14:00:23;5.35;;;3.13;;
53714;SDS011;39608;55.630;37.864;2022-12-18T14:05:29;4.25;;;2.95;;
53714;SDS011;39608;55.630;37.864;2022-12-18T14:10:33;7.25;;;3.88;;
53714;SDS011;39608;55.630;37.864;2022-12-18T14:15:39;6.43;;;3.75;;
53714;SDS011;39608;55.630;37.864;2022-12-18T14:20:43;8.88;;;4.40;;
53714;SDS011;39608;55.630;37.864;2022-12-18T14:25:52;7.78;;;4.88;;
53714;SDS011;39608;55.630;37.864;2022-12-18T14:30:54;9.55;;;4.80;;
53714;SDS011;39608;55.630;37.864;2022-12-18T14:35:57;11.20;;;5.13;;
53714;SDS011;39608;55.630;37.864;2022-12-18T14:41:04;11.75;;;6.78;;
53714;SDS011;39608;55.630;37.864;2022-12-18T14:51:30;19.15;;;8.88;;
53714;SDS011;39608;55.630;37.864;2022-12-18T14:56:35;14.38;;;7.82;;
53714;SDS011;39608;55.630;37.864;2022-12-18T15:01:38;15.95;;;8.05;;
53714;SDS011;39608;55.630;37.864;2022-12-18T15:06:47;16.67;;;7.97;;
53714;SDS011;39608;55.630;37.864;2022-12-18T15:11:54;14.43;;;7.38;;
53714;SDS011;39608;55.630;37.864;2022-12-18T15:16:58;16.75;;;7.72;;
53714;SDS011;39608;55.630;37.864;2022-12-18T15:22:01;12.63;;;6.13;;
53714;SDS011;39608;55.630;37.864;2022-12-18T15:27:17;11.02;;;6.30;;
53714;SDS011;39608;55.630;37.864;2022-12-18T15:32:36;9.68;;;5.45;;
53714;SDS011;39608;55.630;37.864;2022-12-18T15:37:43;8.68;;;4.85;;
53714;SDS011;39608;55.630;37.864;2022-12-18T15:42:47;9.43;;;5.30;;
53714;SDS011;39608;55.630;37.864;2022-12-18T15:48:11;10.10;;;5.35;;
53714;SDS011;39608;55.630;37.864;2022-12-18T15:53:23;8.13;;;5.03;;
53714;SDS011;39608;55.630;37.864;2022-12-18T15:58:28;7.28;;;4.40;;
53714;SDS011;39608;55.630;37.864;2022-12-18T16:03:30;7.00;;;4.50;;
53714;SDS011;39608;55.630;37.864;2022-12-18T16:08:32;7.40;;;4.03;;
53714;SDS011;39608;55.630;37.864;2022-12-18T16:13:36;7.68;;;4.25;;
53714;SDS011;39608;55.630;37.864;2022-12-18T16:18:38;7.47;;;4.65;;
53714;SDS011;39608;55.630;37.864;2022-12-18T16:23:41;7.28;;;4.70;;
53714;SDS011;39608;55.630;37.864;2022-12-18T16:28:44;5.97;;;4.32;;
53714;SDS011;39608;55.630;37.864;2022-12-18T16:33:46;7.03;;;4.70;;
53714;SDS011;39608;55.630;37.864;2022-12-18T16:38:48;5.40;;;3.70;;
53714;SDS011;39608;55.630;37.864;2022-12-18T16:43:51;6.35;;;4.03;;
53714;SDS011;39608;55.630;37.864;2022-12-18T16:48:53;7.20;;;4.90;;
53714;SDS011;39608;55.630;37.864;2022-12-18T16:53:55;5.40;;;3.88;;
53714;SDS011;39608;55.630;37.864;2022-12-18T16:58:59;6.85;;;4.38;;
53714;SDS011;39608;55.630;37.864;2022-12-18T17:04:03;5.50;;;3.47;;
53714;SDS011;39608;55.630;37.864;2022-12-18T17:09:07;5.90;;;4.10;;
53714;SDS011;39608;55.630;37.864;2022-12-18T17:14:14;10.15;;;4.85;;
53714;SDS011;39608;55.630;37.864;2022-12-18T17:19:18;7.65;;;5.00;;
53714;SDS011;39608;55.630;37.864;2022-12-18T17:24:20;9.18;;;4.78;;
53714;SDS011;39608;55.630;37.864;2022-12-18T17:29:23;7.47;;;5.00;;
53714;SDS011;39608;55.630;37.864;2022-12-18T17:34:26;10.20;;;4.78;;
53714;SDS011;39608;55.630;37.864;2022-12-18T17:39:28;8.68;;;4.68;;
53714;SDS011;39608;55.630;37.864;2022-12-18T17:44:31;5.93;;;4.03;;
53714;SDS011;39608;55.630;37.864;2022-12-18T17:49:34;7.25;;;4.63;;
53714;SDS011;39608;55.630;37.864;2022-12-18T17:54:36;5.47;;;3.70;;
53714;SDS011;39608;55.630;37.864;2022-12-18T17:59:42;9.02;;;5.25;;
53714;SDS011;39608;55.630;37.864;2022-12-18T18:04:44;7.97;;;5.20;;
53714;SDS011;39608;55.630;37.864;2022-12-18T18:09:46;9.95;;;4.82;;
53714;SDS011;39608;55.630;37.864;2022-12-18T18:14:49;10.57;;;5.72;;
53714;SDS011;39608;55.630;37.864;2022-12-18T18:19:51;9.48;;;5.88;;
53714;SDS011;39608;55.630;37.864;2022-12-18T18:24:53;7.13;;;4.63;;
53714;SDS011;39608;55.630;37.864;2022-12-18T18:29:57;8.60;;;5.20;;
53714;SDS011;39608;55.630;37.864;2022-12-18T18:34:59;11.88;;;5.47;;
53714;SDS011;39608;55.630;37.864;2022-12-18T18:40:01;8.00;;;5.20;;
53714;SDS011;39608;55.630;37.864;2022-12-18T18:45:06;10.30;;;5.28;;
53714;SDS011;39608;55.630;37.864;2022-12-18T18:50:09;4.90;;;3.28;;
53714;SDS011;39608;55.630;37.864;2022-12-18T18:55:12;8.40;;;5.28;;
53714;SDS011;39608;55.630;37.864;2022-12-18T19:00:16;7.30;;;5.00;;
53714;SDS011;39608;55.630;37.864;2022-12-18T19:05:18;8.93;;;5.43;;
53714;SDS011;39608;55.630;37.864;2022-12-18T19:10:21;6.93;;;4.38;;
53714;SDS011;39608;55.630;37.864;2022-12-18T19:15:24;10.57;;;6.10;;
53714;SDS011;39608;55.630;37.864;2022-12-18T19:20:26;7.45;;;4.82;;
53714;SDS011;39608;55.630;37.864;2022-12-18T19:25:28;9.05;;;5.45;;
53714;SDS011;39608;55.630;37.864;2022-12-18T19:30:37;8.73;;;5.18;;
53714;SDS011;39608;55.630;37.864;2022-12-18T19:40:43;9.95;;;3.63;;
53714;SDS011;39608;55.630;37.864;2022-12-18T19:45:52;10.07;;;5.45;;
53714;SDS011;39608;55.630;37.864;2022-12-18T19:50:55;10.02;;;4.85;;
53714;SDS011;39608;55.630;37.864;2022-12-18T19:55:58;10.10;;;5.57;;
53714;SDS011;39608;55.630;37.864;2022-12-18T20:01:01;7.75;;;4.75;;
53714;SDS011;39608;55.630;37.864;2022-12-18T20:06:07;7.20;;;4.50;;
53714;SDS011;39608;55.630;37.864;2022-12-18T20:11:10;10.83;;;5.67;;
53714;SDS011;39608;55.630;37.864;2022-12-18T20:16:13;10.50;;;5.78;;
53714;SDS011;39608;55.630;37.864;2022-12-18T20:21:15;11.73;;;5.82;;
53714;SDS011;39608;55.630;37.864;2022-12-18T20:26:17;10.50;;;6.32;;
53714;SDS011;39608;55.630;37.864;2022-12-18T20:31:21;10.38;;;5.40;;
53714;SDS011;39608;55.630;37.864;2022-12-18T20:36:23;12.10;;;6.53;;
53714;SDS011;39608;55.630;37.864;2022-12-18T20:41:26;12.13;;;5.63;;
53714;SDS011;39608;55.630;37.864;2022-12-18T20:46:30;13.20;;;7.00;;
53714;SDS011;39608;55.630;37.864;2022-12-18T20:51:32;10.07;;;4.97;;
53714;SDS011;39608;55.630;37.864;2022-12-18T20:56:34;7.85;;;4.30;;
53714;SDS011;39608;55.630;37.864;2022-12-18T21:01:37;11.30;;;5.80;;
53714;SDS011;39608;55.630;37.864;2022-12-18T21:06:40;11.85;;;5.95;;
53714;SDS011;39608;55.630;37.864;2022-12-18T21:11:42;10.30;;;4.88;;
53714;SDS011;39608;55.630;37.864;2022-12-18T21:22:28;16.30;;;6.55;;
53714;SDS011;39608;55.630;37.864;2022-12-18T21:27:30;10.73;;;5.40;;
53714;SDS011;39608;55.630;37.864;2022-12-18T21:32:34;15.65;;;6.75;;
53714;SDS011;39608;55.630;37.864;2022-12-18T21:37:36;12.02;;;5.90;;
53714;SDS011;39608;55.630;37.864;2022-12-18T21:42:38;19.88;;;7.80;;
53714;SDS011;39608;55.630;37.864;2022-12-18T21:47:59;15.05;;;7.47;;
53714;SDS011;39608;55.630;37.864;2022-12-18T21:53:01;16.83;;;7.22;;
53714;SDS011;39608;55.630;37.864;2022-12-18T21:58:03;20.27;;;7.80;;
53714;SDS011;39608;55.630;37.864;2022-12-18T22:03:06;13.77;;;6.15;;
53714;SDS011;39608;55.630;37.864;2022-12-18T22:08:08;15.70;;;7.32;;
53714;SDS011;39608;55.630;37.864;2022-12-18T22:13:10;18.95;;;8.25;;
53714;SDS011;39608;55.630;37.864;2022-12-18T22:18:13;18.15;;;8.45;;
53714;SDS011;39608;55.630;37.864;2022-12-18T22:23:15;14.90;;;6.93;;
53714;SDS011;39608;55.630;37.864;2022-12-18T22:28:18;18.33;;;7.10;;
53714;SDS011;39608;55.630;37.864;2022-12-18T22:33:39;14.10;;;7.05;;
53714;SDS011;39608;55.630;37.864;2022-12-18T22:38:41;14.82;;;7.07;;
53714;SDS011;39608;55.630;37.864;2022-12-18T22:43:43;14.88;;;6.28;;
53714;SDS011;39608;55.630;37.864;2022-12-18T22:48:46;14.32;;;6.45;;
53714;SDS011;39608;55.630;37.864;2022-12-18T22:53:50;10.50;;;5.60;;
53714;SDS011;39608;55.630;37.864;2022-12-18T22:58:52;11.35;;;5.63;;
53714;SDS011;39608;55.630;37.864;2022-12-18T23:03:56;12.30;;;6.75;;
53714;SDS011;39608;55.630;37.864;2022-12-18T23:08:58;14.10;;;5.85;;
53714;SDS011;39608;55.630;37.864;2022-12-18T23:14:01;12.25;;;6.13;;
53714;SDS011;39608;55.630;37.864;2022-12-18T23:19:05;8.73;;;5.22;;
53714;SDS011;39608;55.630;37.864;2022-12-18T23:24:07;9.52;;;5.50;;
53714;SDS011;39608;55.630;37.864;2022-12-18T23:29:09;8.75;;;4.72;;
53714;SDS011;39608;55.630;37.864;2022-12-18T23:34:15;9.02;;;5.20;;
53714;SDS011;39608;55.630;37.864;2022-12-18T23:39:17;7.95;;;4.97;;
53714;SDS011;39608;55.630;37.864;2022-12-18T23:44:19;10.13;;;5.00;;
53714;SDS011;39608;55.630;37.864;2022-12-18T23:49:23;7.72;;;4.40;;
53714;SDS011;39608;55.630;37.864;2022-12-18T23:54:25;8.18;;;5.07;;
53714;SDS011;39608;55.630;37.864;2022-12-18T23:59:27;6.63;;;3.97;;
